CG45P CYYJ-CYWG
Flight info
| Callsign | CG45P |
|---|---|
| Flight time | N/A |
| Altitude | 40000 |
| Route | HUH DCT ALNOD DCT IKNIX DCT YXC DCT MEDAK DCT SEGAP BEFAN5 |
| Aircraft | C750/M-SBDE3FGHRWXY/S |
Departure
| Time | N/A |
|---|---|
| Airport | Victoria International Airport (CYYJ) |
Arrival
| Time | 2026-05-07 02:19 |
|---|---|
| Airport | Winnipeg / James Armstrong Richardson International Airport (CYWG) |
| Time | Latitude | Longitude | Altitude | Speed | Heading |
|---|---|---|---|---|---|
| 2026-05-07 00:14 | 49.08152 | -122.85633 | 28960 ft | 394 kts | 128° |
| 2026-05-07 00:15 | 49.06511 | -122.82282 | 29498 ft | 395 kts | 128° |
| 2026-05-07 00:15 | 49.04874 | -122.78903 | 30040 ft | 397 kts | 126° |
| 2026-05-07 00:15 | 49.03532 | -122.75212 | 30497 ft | 400 kts | 112° |
| 2026-05-07 00:15 | 49.02676 | -122.71185 | 30937 ft | 400 kts | 99° |
| 2026-05-07 00:16 | 49.02343 | -122.67004 | 31402 ft | 396 kts | 86° |
| 2026-05-07 00:16 | 49.02543 | -122.62845 | 31859 ft | 392 kts | 73° |
| 2026-05-07 00:16 | 49.03264 | -122.58857 | 32357 ft | 390 kts | 62° |
| 2026-05-07 00:16 | 49.04316 | -122.55033 | 32901 ft | 392 kts | 57° |
| 2026-05-07 00:17 | 49.05439 | -122.51284 | 33478 ft | 396 kts | 57° |
| 2026-05-07 00:17 | 49.06575 | -122.47432 | 34037 ft | 402 kts | 57° |
| 2026-05-07 00:17 | 49.07681 | -122.43471 | 34541 ft | 408 kts | 58° |
| 2026-05-07 00:17 | 49.08739 | -122.39405 | 35022 ft | 416 kts | 60° |
| 2026-05-07 00:18 | 49.09733 | -122.35227 | 35509 ft | 423 kts | 62° |
| 2026-05-07 00:18 | 49.10656 | -122.30930 | 36009 ft | 430 kts | 64° |
| 2026-05-07 00:18 | 49.11497 | -122.26508 | 36518 ft | 437 kts | 66° |
| 2026-05-07 00:18 | 49.12243 | -122.21971 | 37023 ft | 443 kts | 69° |
| 2026-05-07 00:19 | 49.12876 | -122.17332 | 37564 ft | 449 kts | 72° |
| 2026-05-07 00:19 | 49.13385 | -122.12605 | 38107 ft | 454 kts | 75° |
| 2026-05-07 00:19 | 49.13753 | -122.07784 | 38661 ft | 459 kts | 78° |
| 2026-05-07 00:19 | 49.13963 | -122.02903 | 39150 ft | 462 kts | 82° |
| 2026-05-07 00:20 | 49.13997 | -121.98031 | 39589 ft | 466 kts | 86° |
| 2026-05-07 00:20 | 49.13835 | -121.93081 | 40066 ft | 469 kts | 90° |
| 2026-05-07 00:20 | 49.13465 | -121.88068 | 40142 ft | 483 kts | 95° |
| 2026-05-07 00:20 | 49.12833 | -121.82953 | 40147 ft | 498 kts | 100° |
| 2026-05-07 00:21 | 49.11822 | -121.77812 | 40122 ft | 514 kts | 109° |
| 2026-05-07 00:21 | 49.10313 | -121.72773 | 40139 ft | 527 kts | 115° |
| 2026-05-07 00:21 | 49.06965 | -121.62585 | 40134 ft | 547 kts | 112° |
| 2026-05-07 00:22 | 49.04928 | -121.51285 | 40109 ft | 560 kts | 94° |
| 2026-05-07 00:22 | 49.05007 | -121.39359 | 40108 ft | 567 kts | 77° |
| 2026-05-07 00:23 | 49.07035 | -121.27728 | 40092 ft | 571 kts | 65° |
| 2026-05-07 00:23 | 49.08308 | -121.22087 | 40086 ft | 553 kts | 65° |
| 2026-05-07 00:23 | 49.09467 | -121.16602 | 40053 ft | 551 kts | 67° |
| 2026-05-07 00:24 | 49.10957 | -121.04912 | 40074 ft | 571 kts | 79° |
| 2026-05-07 00:24 | 49.11552 | -120.92745 | 40030 ft | 575 kts | 81° |
| 2026-05-07 00:25 | 49.12662 | -120.80710 | 40028 ft | 570 kts | 75° |
| 2026-05-07 00:25 | 49.13728 | -120.68652 | 39999 ft | 575 kts | 79° |
| 2026-05-07 00:26 | 49.14665 | -120.56620 | 40000 ft | 573 kts | 76° |
| 2026-05-07 00:26 | 49.15737 | -120.44559 | 39979 ft | 574 kts | 79° |
| 2026-05-07 00:27 | 49.16657 | -120.32445 | 39965 ft | 573 kts | 77° |
| 2026-05-07 00:27 | 49.17685 | -120.20376 | 39945 ft | 572 kts | 78° |
| 2026-05-07 00:28 | 49.18600 | -120.08292 | 39943 ft | 573 kts | 78° |
| 2026-05-07 00:28 | 49.19583 | -119.96186 | 39906 ft | 573 kts | 78° |
| 2026-05-07 00:29 | 49.20496 | -119.84067 | 39901 ft | 574 kts | 78° |
| 2026-05-07 00:30 | 49.22331 | -119.59899 | 39837 ft | 576 kts | 78° |
| 2026-05-07 00:30 | 49.23236 | -119.47746 | 39841 ft | 573 kts | 78° |
| 2026-05-07 00:31 | 49.24120 | -119.35605 | 39832 ft | 575 kts | 79° |
| 2026-05-07 00:31 | 49.25003 | -119.23447 | 39828 ft | 573 kts | 78° |
| 2026-05-07 00:32 | 49.26313 | -119.11443 | 39821 ft | 571 kts | 74° |
| 2026-05-07 00:32 | 49.27640 | -118.99442 | 39825 ft | 571 kts | 76° |
| 2026-05-07 00:33 | 49.28928 | -118.87422 | 39813 ft | 571 kts | 75° |
| 2026-05-07 00:33 | 49.30220 | -118.75530 | 39811 ft | 569 kts | 75° |
| 2026-05-07 00:34 | 49.31484 | -118.63523 | 39825 ft | 568 kts | 75° |
| 2026-05-07 00:34 | 49.32755 | -118.51537 | 39813 ft | 570 kts | 76° |
| 2026-05-07 00:35 | 49.33994 | -118.39548 | 39810 ft | 570 kts | 76° |
| 2026-05-07 00:35 | 49.35239 | -118.27540 | 39809 ft | 570 kts | 76° |
| 2026-05-07 00:36 | 49.36458 | -118.15524 | 39816 ft | 570 kts | 76° |
| 2026-05-07 00:36 | 49.37672 | -118.03530 | 39819 ft | 568 kts | 76° |
| 2026-05-07 00:37 | 49.38866 | -117.91530 | 39823 ft | 568 kts | 76° |
| 2026-05-07 00:37 | 49.40043 | -117.79626 | 39841 ft | 569 kts | 76° |
| 2026-05-07 00:38 | 49.41211 | -117.67639 | 39822 ft | 565 kts | 76° |
| 2026-05-07 00:38 | 49.42370 | -117.55659 | 39828 ft | 567 kts | 77° |
| 2026-05-07 00:39 | 49.43512 | -117.43672 | 39828 ft | 566 kts | 77° |
| 2026-05-07 00:39 | 49.44643 | -117.31696 | 39828 ft | 566 kts | 77° |
| 2026-05-07 00:40 | 49.45761 | -117.19714 | 39836 ft | 566 kts | 77° |
| 2026-05-07 00:40 | 49.46859 | -117.07803 | 39850 ft | 567 kts | 77° |
| 2026-05-07 00:41 | 49.47955 | -116.95790 | 39845 ft | 565 kts | 77° |
| 2026-05-07 00:41 | 49.49035 | -116.83794 | 39864 ft | 567 kts | 77° |
| 2026-05-07 00:42 | 49.50101 | -116.71806 | 39881 ft | 565 kts | 77° |
| 2026-05-07 00:42 | 49.51158 | -116.59802 | 39878 ft | 566 kts | 77° |
| 2026-05-07 00:43 | 49.52199 | -116.47799 | 39888 ft | 566 kts | 77° |
| 2026-05-07 00:43 | 49.53227 | -116.35823 | 39892 ft | 563 kts | 78° |
| 2026-05-07 00:44 | 49.54247 | -116.23813 | 39897 ft | 565 kts | 78° |
| 2026-05-07 00:44 | 49.55243 | -116.11859 | 39889 ft | 566 kts | 78° |
| 2026-05-07 00:45 | 49.56499 | -115.99886 | 39858 ft | 565 kts | 75° |
| 2026-05-07 00:45 | 49.57868 | -115.87929 | 39863 ft | 566 kts | 76° |
| 2026-05-07 00:46 | 49.59181 | -115.75986 | 39843 ft | 565 kts | 76° |
| 2026-05-07 00:46 | 49.60515 | -115.64047 | 39853 ft | 566 kts | 76° |
| 2026-05-07 00:47 | 49.61811 | -115.52080 | 39896 ft | 566 kts | 76° |
| 2026-05-07 00:47 | 49.63114 | -115.40130 | 39886 ft | 564 kts | 76° |
| 2026-05-07 00:48 | 49.64381 | -115.28262 | 39899 ft | 565 kts | 76° |
| 2026-05-07 00:48 | 49.65653 | -115.16309 | 39891 ft | 564 kts | 76° |
| 2026-05-07 00:49 | 49.66908 | -115.04335 | 39884 ft | 564 kts | 76° |
| 2026-05-07 00:49 | 49.68144 | -114.92442 | 39893 ft | 560 kts | 76° |
| 2026-05-07 00:50 | 49.69372 | -114.80533 | 39883 ft | 562 kts | 76° |
| 2026-05-07 00:50 | 49.70584 | -114.68593 | 39882 ft | 563 kts | 77° |
| 2026-05-07 00:51 | 49.71779 | -114.56744 | 39887 ft | 558 kts | 77° |
| 2026-05-07 00:51 | 49.72960 | -114.44889 | 39880 ft | 554 kts | 77° |
| 2026-05-07 00:52 | 49.74189 | -114.33154 | 39862 ft | 556 kts | 76° |
| 2026-05-07 00:52 | 49.75359 | -114.21336 | 39851 ft | 557 kts | 78° |
| 2026-05-07 00:53 | 49.76467 | -114.09494 | 39853 ft | 554 kts | 77° |
| 2026-05-07 00:53 | 49.77624 | -113.97695 | 39845 ft | 555 kts | 78° |
| 2026-05-07 00:54 | 49.78707 | -113.85871 | 39845 ft | 555 kts | 77° |
| 2026-05-07 00:54 | 49.79823 | -113.74142 | 39821 ft | 555 kts | 78° |
| 2026-05-07 00:55 | 49.80891 | -113.62334 | 39821 ft | 553 kts | 78° |
| 2026-05-07 00:55 | 49.81979 | -113.50527 | 39820 ft | 553 kts | 78° |
| 2026-05-07 00:56 | 49.83031 | -113.38717 | 39812 ft | 554 kts | 78° |
| 2026-05-07 00:56 | 49.83912 | -113.28880 | 39814 ft | 554 kts | 78° |
| 2026-05-07 00:57 | 49.84947 | -113.17064 | 39801 ft | 551 kts | 79° |
| 2026-05-07 00:57 | 49.85974 | -113.05287 | 39791 ft | 551 kts | 79° |
| 2026-05-07 00:58 | 49.86977 | -112.93583 | 39781 ft | 551 kts | 79° |
| 2026-05-07 00:58 | 49.87978 | -112.81796 | 39780 ft | 551 kts | 79° |
| 2026-05-07 00:59 | 49.89455 | -112.64099 | 39792 ft | 552 kts | 79° |
| 2026-05-07 01:00 | 49.90427 | -112.52297 | 39805 ft | 552 kts | 79° |
| 2026-05-07 01:00 | 49.91384 | -112.40487 | 39812 ft | 552 kts | 79° |
| 2026-05-07 01:01 | 49.92333 | -112.28655 | 39820 ft | 551 kts | 79° |
| 2026-05-07 01:01 | 49.93260 | -112.16922 | 39818 ft | 550 kts | 79° |
| 2026-05-07 01:02 | 49.94180 | -112.05130 | 39822 ft | 551 kts | 80° |
| 2026-05-07 01:02 | 49.95090 | -111.93313 | 39828 ft | 551 kts | 80° |
| 2026-05-07 01:03 | 49.95986 | -111.81504 | 39815 ft | 550 kts | 80° |
| 2026-05-07 01:03 | 49.96871 | -111.69699 | 39823 ft | 550 kts | 80° |
| 2026-05-07 01:04 | 49.97743 | -111.57881 | 39835 ft | 551 kts | 80° |
| 2026-05-07 01:04 | 49.98605 | -111.46046 | 39834 ft | 551 kts | 80° |
| 2026-05-07 01:05 | 49.99453 | -111.34233 | 39842 ft | 549 kts | 80° |
| 2026-05-07 01:05 | 50.00281 | -111.22520 | 39841 ft | 549 kts | 80° |
| 2026-05-07 01:06 | 50.01103 | -111.10730 | 39828 ft | 549 kts | 80° |
| 2026-05-07 01:06 | 50.01915 | -110.98908 | 39819 ft | 549 kts | 81° |
| 2026-05-07 01:07 | 50.02714 | -110.87082 | 39806 ft | 548 kts | 80° |
| 2026-05-07 01:07 | 50.03500 | -110.75288 | 39804 ft | 548 kts | 80° |
| 2026-05-07 01:08 | 50.04268 | -110.63561 | 39806 ft | 548 kts | 81° |
| 2026-05-07 01:08 | 50.04727 | -110.51692 | 39865 ft | 550 kts | 84° |
| 2026-05-07 01:09 | 50.05091 | -110.39822 | 39875 ft | 547 kts | 83° |
| 2026-05-07 01:09 | 50.05473 | -110.28015 | 39887 ft | 547 kts | 83° |
| 2026-05-07 01:10 | 50.05815 | -110.16179 | 39883 ft | 547 kts | 83° |
| 2026-05-07 01:10 | 50.06167 | -110.04321 | 39899 ft | 548 kts | 83° |
| 2026-05-07 01:11 | 50.06488 | -109.92549 | 39906 ft | 546 kts | 83° |
| 2026-05-07 01:11 | 50.06813 | -109.80736 | 39904 ft | 546 kts | 83° |
| 2026-05-07 01:12 | 50.07114 | -109.68910 | 39905 ft | 547 kts | 83° |
| 2026-05-07 01:12 | 50.07412 | -109.57082 | 39907 ft | 547 kts | 83° |
| 2026-05-07 01:13 | 50.07692 | -109.45236 | 39913 ft | 548 kts | 83° |
| 2026-05-07 01:13 | 50.07964 | -109.33388 | 39917 ft | 548 kts | 83° |
| 2026-05-07 01:14 | 50.08222 | -109.21530 | 39916 ft | 548 kts | 83° |
| 2026-05-07 01:14 | 50.08468 | -109.09671 | 39924 ft | 548 kts | 83° |
| 2026-05-07 01:15 | 50.08701 | -108.97889 | 39920 ft | 547 kts | 83° |
| 2026-05-07 01:15 | 50.08924 | -108.86053 | 39923 ft | 546 kts | 83° |
| 2026-05-07 01:16 | 50.09133 | -108.74215 | 39923 ft | 547 kts | 83° |
| 2026-05-07 01:16 | 50.09331 | -108.62358 | 39921 ft | 547 kts | 83° |
| 2026-05-07 01:17 | 50.09517 | -108.50515 | 39930 ft | 546 kts | 83° |
| 2026-05-07 01:17 | 50.09691 | -108.38707 | 39931 ft | 546 kts | 83° |
| 2026-05-07 01:18 | 50.09851 | -108.26948 | 39930 ft | 547 kts | 83° |
| 2026-05-07 01:18 | 50.10001 | -108.15103 | 39943 ft | 546 kts | 83° |
| 2026-05-07 01:19 | 50.10139 | -108.03259 | 39937 ft | 547 kts | 83° |
| 2026-05-07 01:19 | 50.10266 | -107.91405 | 39926 ft | 547 kts | 83° |
| 2026-05-07 01:20 | 50.10378 | -107.79572 | 39888 ft | 547 kts | 83° |
| 2026-05-07 01:20 | 50.10480 | -107.67718 | 39887 ft | 547 kts | 83° |
| 2026-05-07 01:21 | 50.10569 | -107.55848 | 39904 ft | 546 kts | 83° |
| 2026-05-07 01:21 | 50.10646 | -107.44109 | 39920 ft | 545 kts | 83° |
| 2026-05-07 01:22 | 50.10712 | -107.32285 | 39943 ft | 546 kts | 84° |
| 2026-05-07 01:22 | 50.10765 | -107.20451 | 39964 ft | 546 kts | 84° |
| 2026-05-07 01:23 | 50.10807 | -107.08622 | 39959 ft | 545 kts | 84° |
| 2026-05-07 01:23 | 50.10836 | -106.96815 | 39963 ft | 544 kts | 84° |
| 2026-05-07 01:24 | 50.10854 | -106.85010 | 39966 ft | 545 kts | 84° |
| 2026-05-07 01:24 | 50.10859 | -106.73186 | 39967 ft | 546 kts | 84° |
| 2026-05-07 01:25 | 50.10853 | -106.61340 | 39975 ft | 548 kts | 84° |
| 2026-05-07 01:25 | 50.10833 | -106.49568 | 39974 ft | 547 kts | 84° |
| 2026-05-07 01:26 | 50.10804 | -106.37720 | 39980 ft | 547 kts | 84° |
| 2026-05-07 01:26 | 50.10760 | -106.25870 | 39989 ft | 547 kts | 84° |
| 2026-05-07 01:27 | 50.10706 | -106.13992 | 39985 ft | 549 kts | 85° |
| 2026-05-07 01:27 | 50.10637 | -106.02116 | 39985 ft | 548 kts | 85° |
| 2026-05-07 01:28 | 50.10560 | -105.90235 | 39979 ft | 548 kts | 85° |
| 2026-05-07 01:28 | 50.10468 | -105.78421 | 39969 ft | 548 kts | 85° |
| 2026-05-07 01:29 | 50.10366 | -105.66533 | 39963 ft | 549 kts | 85° |
| 2026-05-07 01:29 | 50.10249 | -105.54671 | 39966 ft | 547 kts | 85° |
| 2026-05-07 01:30 | 50.10123 | -105.42800 | 39971 ft | 548 kts | 85° |
| 2026-05-07 01:30 | 50.09982 | -105.30924 | 39981 ft | 548 kts | 85° |
| 2026-05-07 01:31 | 50.09833 | -105.19123 | 39997 ft | 549 kts | 85° |
| 2026-05-07 01:31 | 50.09667 | -105.07255 | 40001 ft | 548 kts | 85° |
| 2026-05-07 01:32 | 50.09493 | -104.95394 | 39998 ft | 548 kts | 85° |
| 2026-05-07 01:32 | 50.09304 | -104.83525 | 39998 ft | 548 kts | 86° |
| 2026-05-07 01:33 | 50.09105 | -104.71642 | 39995 ft | 549 kts | 86° |
| 2026-05-07 01:33 | 50.08891 | -104.59778 | 39996 ft | 548 kts | 86° |
| 2026-05-07 01:34 | 50.08670 | -104.47984 | 39997 ft | 548 kts | 86° |
| 2026-05-07 01:34 | 50.08432 | -104.36113 | 39993 ft | 548 kts | 86° |
| 2026-05-07 01:35 | 50.08184 | -104.24235 | 39989 ft | 549 kts | 86° |
| 2026-05-07 01:35 | 50.07922 | -104.12369 | 39989 ft | 548 kts | 86° |
| 2026-05-07 01:36 | 50.07651 | -104.00517 | 39989 ft | 548 kts | 86° |
| 2026-05-07 01:36 | 50.07366 | -103.88654 | 39986 ft | 548 kts | 86° |
| 2026-05-07 01:37 | 50.07069 | -103.76788 | 39979 ft | 548 kts | 87° |
| 2026-05-07 01:37 | 50.06759 | -103.64949 | 39981 ft | 546 kts | 87° |
| 2026-05-07 01:38 | 50.06442 | -103.53188 | 39981 ft | 547 kts | 87° |
| 2026-05-07 01:38 | 50.06111 | -103.41348 | 39978 ft | 548 kts | 87° |
| 2026-05-07 01:39 | 50.05765 | -103.29504 | 39979 ft | 548 kts | 87° |
| 2026-05-07 01:39 | 50.05409 | -103.17668 | 39982 ft | 548 kts | 87° |
| 2026-05-07 01:40 | 50.05040 | -103.05827 | 39979 ft | 548 kts | 87° |
| 2026-05-07 01:40 | 50.04659 | -102.93992 | 39978 ft | 548 kts | 88° |
| 2026-05-07 01:41 | 50.04266 | -102.82146 | 39982 ft | 548 kts | 88° |
| 2026-05-07 01:41 | 50.03861 | -102.70310 | 39983 ft | 547 kts | 88° |
| 2026-05-07 01:42 | 50.03446 | -102.58496 | 39987 ft | 548 kts | 88° |
| 2026-05-07 01:42 | 50.03016 | -102.46672 | 39982 ft | 548 kts | 88° |
| 2026-05-07 01:43 | 50.02576 | -102.34834 | 39979 ft | 549 kts | 89° |
| 2026-05-07 01:43 | 50.02121 | -102.22989 | 39984 ft | 548 kts | 89° |
| 2026-05-07 01:44 | 50.01736 | -102.13157 | 39986 ft | 548 kts | 89° |
| 2026-05-07 01:44 | 50.01261 | -102.01331 | 39983 ft | 549 kts | 89° |
| 2026-05-07 01:45 | 50.00692 | -101.87570 | 39985 ft | 549 kts | 89° |
| 2026-05-07 01:45 | 50.00273 | -101.77653 | 39982 ft | 548 kts | 89° |
| 2026-05-07 01:46 | 49.99765 | -101.65893 | 39983 ft | 549 kts | 89° |
| 2026-05-07 01:46 | 49.99240 | -101.54055 | 39984 ft | 549 kts | 89° |
| 2026-05-07 01:47 | 49.98703 | -101.42205 | 39986 ft | 550 kts | 90° |
| 2026-05-07 01:47 | 49.98155 | -101.30381 | 39984 ft | 548 kts | 90° |
| 2026-05-07 01:48 | 49.97596 | -101.18554 | 39985 ft | 548 kts | 90° |
| 2026-05-07 01:48 | 49.97023 | -101.06724 | 39979 ft | 548 kts | 90° |
| 2026-05-07 01:49 | 49.96443 | -100.94991 | 39981 ft | 549 kts | 90° |
| 2026-05-07 01:49 | 49.95847 | -100.83171 | 39980 ft | 548 kts | 90° |
| 2026-05-07 01:50 | 49.95240 | -100.71364 | 39983 ft | 549 kts | 91° |
| 2026-05-07 01:50 | 49.94619 | -100.59548 | 39982 ft | 549 kts | 91° |
| 2026-05-07 01:51 | 49.93987 | -100.47730 | 39978 ft | 551 kts | 91° |
| 2026-05-07 01:51 | 49.93340 | -100.35889 | 39976 ft | 550 kts | 91° |
| 2026-05-07 01:52 | 49.92684 | -100.24065 | 39976 ft | 550 kts | 91° |
| 2026-05-07 01:52 | 49.92014 | -100.12230 | 39922 ft | 550 kts | 91° |
| 2026-05-07 01:53 | 49.91332 | -100.00399 | 39906 ft | 551 kts | 92° |
| 2026-05-07 01:53 | 49.90988 | -99.94449 | 39542 ft | 553 kts | 91° |
| 2026-05-07 01:53 | 49.90731 | -99.88531 | 39163 ft | 547 kts | 90° |
| 2026-05-07 01:53 | 49.90455 | -99.82679 | 38789 ft | 541 kts | 90° |
| 2026-05-07 01:54 | 49.90169 | -99.76923 | 38375 ft | 526 kts | 90° |
| 2026-05-07 01:54 | 49.89910 | -99.71468 | 37917 ft | 501 kts | 90° |
| 2026-05-07 01:54 | 49.89669 | -99.66195 | 37459 ft | 479 kts | 89° |
| 2026-05-07 01:54 | 49.89431 | -99.61131 | 37010 ft | 462 kts | 89° |
| 2026-05-07 01:55 | 49.89191 | -99.56223 | 36602 ft | 452 kts | 89° |
| 2026-05-07 01:55 | 49.88956 | -99.51387 | 36179 ft | 448 kts | 90° |
| 2026-05-07 01:55 | 49.88722 | -99.46565 | 35777 ft | 449 kts | 89° |
| 2026-05-07 01:55 | 49.88484 | -99.41728 | 35385 ft | 450 kts | 90° |
| 2026-05-07 01:56 | 49.88240 | -99.36891 | 34997 ft | 448 kts | 90° |
| 2026-05-07 01:56 | 49.87995 | -99.32087 | 34610 ft | 445 kts | 89° |
| 2026-05-07 01:56 | 49.87754 | -99.27314 | 34230 ft | 442 kts | 89° |
| 2026-05-07 01:56 | 49.87512 | -99.22577 | 33812 ft | 438 kts | 89° |
| 2026-05-07 01:57 | 49.87270 | -99.17894 | 33352 ft | 434 kts | 90° |
| 2026-05-07 01:57 | 49.87028 | -99.13258 | 32900 ft | 429 kts | 90° |
| 2026-05-07 01:57 | 49.86788 | -99.08673 | 32477 ft | 425 kts | 90° |
| 2026-05-07 01:57 | 49.86548 | -99.04132 | 32040 ft | 420 kts | 91° |
| 2026-05-07 01:58 | 49.86309 | -98.99638 | 31609 ft | 416 kts | 91° |
| 2026-05-07 01:58 | 49.86071 | -98.95194 | 31185 ft | 412 kts | 91° |
| 2026-05-07 01:58 | 49.85834 | -98.90799 | 30769 ft | 408 kts | 92° |
| 2026-05-07 01:58 | 49.85597 | -98.86446 | 30356 ft | 404 kts | 92° |
| 2026-05-07 01:59 | 49.85361 | -98.82134 | 29916 ft | 400 kts | 92° |
| 2026-05-07 01:59 | 49.85128 | -98.77912 | 29427 ft | 397 kts | 92° |
| 2026-05-07 01:59 | 49.84893 | -98.73674 | 28937 ft | 393 kts | 92° |
| 2026-05-07 01:59 | 49.84658 | -98.69468 | 28456 ft | 390 kts | 93° |
| 2026-05-07 02:00 | 49.84423 | -98.65297 | 27987 ft | 387 kts | 93° |
| 2026-05-07 02:00 | 49.84188 | -98.61153 | 27521 ft | 384 kts | 93° |
| 2026-05-07 02:00 | 49.83955 | -98.57048 | 27064 ft | 381 kts | 93° |
| 2026-05-07 02:00 | 49.83721 | -98.52967 | 26617 ft | 378 kts | 94° |
| 2026-05-07 02:01 | 49.83487 | -98.48919 | 26173 ft | 376 kts | 94° |
| 2026-05-07 02:01 | 49.83254 | -98.44899 | 25735 ft | 373 kts | 94° |
| 2026-05-07 02:01 | 49.83021 | -98.40912 | 25307 ft | 371 kts | 94° |
| 2026-05-07 02:01 | 49.82788 | -98.36943 | 24885 ft | 368 kts | 94° |
| 2026-05-07 02:02 | 49.82556 | -98.33012 | 24475 ft | 366 kts | 94° |
| 2026-05-07 02:02 | 49.82326 | -98.29151 | 24064 ft | 364 kts | 94° |
| 2026-05-07 02:02 | 49.82094 | -98.25256 | 23662 ft | 362 kts | 95° |
| 2026-05-07 02:02 | 49.81861 | -98.21389 | 23192 ft | 359 kts | 95° |
| 2026-05-07 02:03 | 49.81629 | -98.17556 | 22710 ft | 356 kts | 94° |
| 2026-05-07 02:03 | 49.81398 | -98.13749 | 22243 ft | 353 kts | 94° |
| 2026-05-07 02:03 | 49.81167 | -98.09979 | 21731 ft | 351 kts | 94° |
| 2026-05-07 02:03 | 49.80936 | -98.06220 | 21194 ft | 349 kts | 94° |
| 2026-05-07 02:04 | 49.80707 | -98.02503 | 20665 ft | 345 kts | 94° |
| 2026-05-07 02:04 | 49.80482 | -97.98824 | 20145 ft | 341 kts | 93° |
| 2026-05-07 02:04 | 49.80360 | -97.95190 | 19626 ft | 337 kts | 91° |
| 2026-05-07 02:04 | 49.80149 | -97.91623 | 19128 ft | 326 kts | 93° |
| 2026-05-07 02:05 | 49.79940 | -97.88230 | 18639 ft | 315 kts | 91° |
| 2026-05-07 02:05 | 49.79784 | -97.84890 | 17957 ft | 309 kts | 90° |
| 2026-05-07 02:05 | 49.79640 | -97.81571 | 17129 ft | 309 kts | 90° |
| 2026-05-07 02:05 | 49.79476 | -97.78265 | 16321 ft | 308 kts | 91° |
| 2026-05-07 02:06 | 49.79303 | -97.74963 | 15545 ft | 306 kts | 91° |
| 2026-05-07 02:06 | 49.79138 | -97.71685 | 14788 ft | 305 kts | 90° |
| 2026-05-07 02:06 | 49.78976 | -97.68427 | 14063 ft | 303 kts | 90° |
| 2026-05-07 02:06 | 49.78812 | -97.65189 | 13270 ft | 301 kts | 90° |
| 2026-05-07 02:07 | 49.78647 | -97.61976 | 12458 ft | 299 kts | 90° |
| 2026-05-07 02:07 | 49.78281 | -97.55602 | 10967 ft | 294 kts | 96° |
| 2026-05-07 02:07 | 49.77834 | -97.52649 | 10457 ft | 276 kts | 101° |
| 2026-05-07 02:08 | 49.77383 | -97.49843 | 9936 ft | 262 kts | 101° |
| 2026-05-07 02:08 | 49.76969 | -97.47160 | 9363 ft | 252 kts | 100° |
| 2026-05-07 02:08 | 49.76556 | -97.44562 | 8798 ft | 245 kts | 103° |
| 2026-05-07 02:08 | 49.75708 | -97.42326 | 8104 ft | 244 kts | 136° |
| 2026-05-07 02:09 | 49.74260 | -97.41078 | 7474 ft | 236 kts | 168° |
| 2026-05-07 02:09 | 49.72674 | -97.41027 | 6917 ft | 224 kts | 192° |
| 2026-05-07 02:09 | 49.71161 | -97.41389 | 6455 ft | 217 kts | 193° |
| 2026-05-07 02:09 | 49.69687 | -97.41737 | 5964 ft | 211 kts | 192° |
| 2026-05-07 02:10 | 49.68304 | -97.42036 | 5413 ft | 186 kts | 192° |
| 2026-05-07 02:10 | 49.67084 | -97.42292 | 4837 ft | 170 kts | 191° |
| 2026-05-07 02:10 | 49.65941 | -97.42508 | 4241 ft | 162 kts | 185° |
| 2026-05-07 02:10 | 49.64860 | -97.42089 | 3630 ft | 160 kts | 153° |
| 2026-05-07 02:11 | 49.64019 | -97.41021 | 3039 ft | 155 kts | 127° |
| 2026-05-07 02:11 | 49.63585 | -97.39645 | 2938 ft | 130 kts | 103° |
| 2026-05-07 02:11 | 49.63501 | -97.38292 | 3032 ft | 134 kts | 84° |
| 2026-05-07 02:11 | 49.63746 | -97.36887 | 3029 ft | 136 kts | 62° |
| 2026-05-07 02:12 | 49.64307 | -97.35734 | 3136 ft | 132 kts | 41° |
| 2026-05-07 02:12 | 49.65079 | -97.34970 | 3410 ft | 136 kts | 24° |
| 2026-05-07 02:12 | 49.65936 | -97.34325 | 3698 ft | 138 kts | 25° |
| 2026-05-07 02:12 | 49.66799 | -97.33653 | 3996 ft | 140 kts | 24° |
| 2026-05-07 02:13 | 49.67697 | -97.32965 | 4024 ft | 145 kts | 23° |
| 2026-05-07 02:13 | 49.68582 | -97.32286 | 4015 ft | 142 kts | 24° |
| 2026-05-07 02:13 | 49.69466 | -97.31610 | 4016 ft | 141 kts | 24° |
| 2026-05-07 02:13 | 49.70349 | -97.30935 | 4015 ft | 141 kts | 23° |
| 2026-05-07 02:14 | 49.71229 | -97.30262 | 4014 ft | 141 kts | 23° |
| 2026-05-07 02:14 | 49.72110 | -97.29588 | 4011 ft | 141 kts | 23° |
| 2026-05-07 02:14 | 49.72990 | -97.28914 | 4010 ft | 141 kts | 23° |
| 2026-05-07 02:14 | 49.73868 | -97.28241 | 4014 ft | 141 kts | 23° |
| 2026-05-07 02:15 | 49.74751 | -97.27589 | 3942 ft | 140 kts | 18° |
| 2026-05-07 02:15 | 49.75687 | -97.27292 | 3691 ft | 134 kts | 7° |
| 2026-05-07 02:15 | 49.76592 | -97.27054 | 3506 ft | 133 kts | 7° |
| 2026-05-07 02:15 | 49.77505 | -97.26836 | 3322 ft | 133 kts | 6° |
| 2026-05-07 02:16 | 49.78417 | -97.26633 | 3140 ft | 132 kts | 6° |
| 2026-05-07 02:16 | 49.79330 | -97.26430 | 2952 ft | 133 kts | 7° |
| 2026-05-07 02:16 | 49.80246 | -97.26226 | 2765 ft | 133 kts | 7° |
| 2026-05-07 02:16 | 49.81164 | -97.26021 | 2578 ft | 134 kts | 7° |
| 2026-05-07 02:17 | 49.82086 | -97.25816 | 2390 ft | 134 kts | 7° |
| 2026-05-07 02:17 | 49.83017 | -97.25610 | 2201 ft | 137 kts | 8° |
| 2026-05-07 02:17 | 49.83960 | -97.25400 | 2008 ft | 138 kts | 8° |
| 2026-05-07 02:17 | 49.84905 | -97.25190 | 1808 ft | 138 kts | 8° |
| 2026-05-07 02:18 | 49.85851 | -97.25020 | 1580 ft | 133 kts | 7° |
| 2026-05-07 02:18 | 49.86731 | -97.24849 | 1349 ft | 123 kts | 10° |
| 2026-05-07 02:18 | 49.87549 | -97.24642 | 1146 ft | 116 kts | 12° |
| 2026-05-07 02:18 | 49.88347 | -97.24457 | 1012 ft | 116 kts | 11° |
| 2026-05-07 02:19 | 49.89142 | -97.24277 | 894 ft | 116 kts | 11° |
| 2026-05-07 02:19 | 49.89896 | -97.24102 | 792 ft | 101 kts | 12° |
| 2026-05-07 02:19 | 49.90434 | -97.23964 | 780 ft | 41 kts | 5° |
| 2026-05-07 02:19 | 49.90598 | -97.23937 | 783 ft | 21 kts | 7° |
| 2026-05-07 02:20 | 49.90731 | -97.23910 | 783 ft | 13 kts | 3° |
| 2026-05-07 02:20 | 49.90764 | -97.23922 | 783 ft | 4 kts | 324° |
| 2026-05-07 02:20 | 49.90777 | -97.23994 | 785 ft | 8 kts | 259° |
| 2026-05-07 02:20 | 49.90767 | -97.24068 | 786 ft | 7 kts | 257° |
| 2026-05-07 02:21 | 49.90757 | -97.24140 | 786 ft | 7 kts | 258° |
| 2026-05-07 02:21 | 49.90745 | -97.24231 | 785 ft | 10 kts | 259° |
| 2026-05-07 02:21 | 49.90724 | -97.24336 | 784 ft | 9 kts | 227° |
| 2026-05-07 02:21 | 49.90687 | -97.24421 | 784 ft | 9 kts | 242° |
| 2026-05-07 02:22 | 49.90653 | -97.24505 | 783 ft | 10 kts | 228° |
| 2026-05-07 02:22 | 49.90616 | -97.24609 | 781 ft | 12 kts | 258° |
| 2026-05-07 02:22 | 49.90598 | -97.24741 | 782 ft | 12 kts | 257° |
| 2026-05-07 02:22 | 49.90580 | -97.24861 | 783 ft | 11 kts | 261° |
| 2026-05-07 02:23 | 49.90569 | -97.24982 | 783 ft | 11 kts | 264° |
| 2026-05-07 02:23 | 49.90565 | -97.25104 | 784 ft | 11 kts | 269° |
| 2026-05-07 02:23 | 49.90560 | -97.25211 | 785 ft | 8 kts | 251° |
| 2026-05-07 02:23 | 49.90514 | -97.25233 | 784 ft | 8 kts | 172° |
| 2026-05-07 02:24 | 49.90456 | -97.25214 | 784 ft | 7 kts | 133° |
| 2026-05-07 02:24 | 49.90455 | -97.25170 | 784 ft | 0 kts | 83° |